TAF KAPN
KAPN 270522Z 2706/2806 27005KT P6SM BKN030 FM271600 13005KT P6SM BKN060 FM280000 00000KT P6SM OVC050=
METAR KAPN
WC KAPN
WS KAPN
WV KAPN